Katerina — WDG6939 — position and weather

sailwx.info

Track history (hours):
 
Tides and Currents Weather Stations Pressure Air Temp Water Temp Dewpoint Dewpoint Depression Visibility Wind Speed Wind Dir Waves Ship Positions

Katerina

Owner: Shill, David B, Spokane, WA. More information available from US FCC via Universal Licensing System and Coast Guard Vessel Documentation Center.

Last reported at 2018-Jul-22 22:01 UTC. Time now 2018-Jul-23 06:13 UTC.
Position N 48°56' W 125°19'.

Length 12 m.

Type: Sailing vessel. MMSI: 367562250.

Date/timePositionNaut miles runAvg speedWind from/ knotsBaromVisibWave heightAir tempDewpointWater temp
2018-Jul-22 22:01N 48°56' W 125°19'0 1.1
2018-Jul-22 22:00N 48°56' W 125°19'2 4.0
2018-Jul-22 21:28N 48°56' W 125°22'2 4.3
2018-Jul-22 21:00N 48°56' W 125°25'2 4.8
2018-Jul-22 20:30N 48°55' W 125°28'3 5.1
2018-Jul-22 20:00N 48°54' W 125°32'3 5.7
2018-Jul-22 19:30N 48°55' W 125°36'3 5.5
2018-Jul-22 19:00N 48°57' W 125°40'3 5.5
2018-Jul-22 18:30N 48°58' W 125°43'3 5.4
2018-Jul-22 17:58N 49°00' W 125°46'2 5.2
2018-Jul-22 17:30N 49°01' W 125°50'2 4.0
2018-Jul-22 17:00N 49°02' W 125°52'2 4.6
2018-Jul-22 16:30N 49°04' W 125°55'2 3.9
2018-Jul-22 16:00N 49°06' W 125°55'3 0.1
2018-Jul-20 18:44N 49°08' W 125°58'2 4.3
2018-Jul-20 18:19N 49°07' W 126°00'2 4.4
2018-Jul-20 17:58N 49°08' W 126°02'18 0.7
2018-Jul-19 18:02N 49°20' W 126°22'1 5.0
2018-Jul-19 17:54N 49°20' W 126°23'2 5.7
2018-Jul-19 17:29N 49°20' W 126°27'3 5.9
2018-Jul-19 17:00N 49°21' W 126°31'3 6.2
2018-Jul-19 16:30N 49°21' W 126°36'3 5.0
2018-Jul-19 15:58N 49°23' W 126°38'5 7.1
2018-Jul-19 15:13N 49°29' W 126°38'2 6.5
2018-Jul-19 14:55N 49°31' W 126°38'5 0.1
2018-Jul-18 02:19N 49°36' W 126°37'2 3.7
2018-Jul-18 01:51N 49°37' W 126°36'  
Track history (hours):
 
Tides and Currents Weather Stations Pressure Air Temp Water Temp Dewpoint Dewpoint Depression Visibility Wind Speed Wind Dir Waves Ship Positions

Katerina

Owner: Shill, David B, Spokane, WA. More information available from US FCC via Universal Licensing System and Coast Guard Vessel Documentation Center.

Last reported at 2018-Jul-22 22:01 UTC. Time now 2018-Jul-23 06:13 UTC.
Position N 48°56' W 125°19'.

Length 12 m.

Type: Sailing vessel. MMSI: 367562250.

Date/timePositionNaut miles runAvg speedWind from/ knotsBaromVisibWave heightAir tempDewpointWater temp
2018-Jul-22 22:01N 48°56' W 125°19'0 1.1
2018-Jul-22 22:00N 48°56' W 125°19'2 4.0
2018-Jul-22 21:28N 48°56' W 125°22'2 4.3
2018-Jul-22 21:00N 48°56' W 125°25'2 4.8
2018-Jul-22 20:30N 48°55' W 125°28'3 5.1
2018-Jul-22 20:00N 48°54' W 125°32'3 5.7
2018-Jul-22 19:30N 48°55' W 125°36'3 5.5
2018-Jul-22 19:00N 48°57' W 125°40'3 5.5
2018-Jul-22 18:30N 48°58' W 125°43'3 5.4
2018-Jul-22 17:58N 49°00' W 125°46'2 5.2
2018-Jul-22 17:30N 49°01' W 125°50'2 4.0
2018-Jul-22 17:00N 49°02' W 125°52'2 4.6
2018-Jul-22 16:30N 49°04' W 125°55'2 3.9
2018-Jul-22 16:00N 49°06' W 125°55'3 0.1
2018-Jul-20 18:44N 49°08' W 125°58'2 4.3
2018-Jul-20 18:19N 49°07' W 126°00'2 4.4
2018-Jul-20 17:58N 49°08' W 126°02'18 0.7
2018-Jul-19 18:02N 49°20' W 126°22'1 5.0
2018-Jul-19 17:54N 49°20' W 126°23'2 5.7
2018-Jul-19 17:29N 49°20' W 126°27'3 5.9
2018-Jul-19 17:00N 49°21' W 126°31'3 6.2
2018-Jul-19 16:30N 49°21' W 126°36'3 5.0
2018-Jul-19 15:58N 49°23' W 126°38'5 7.1
2018-Jul-19 15:13N 49°29' W 126°38'2 6.5
2018-Jul-19 14:55N 49°31' W 126°38'5 0.1
2018-Jul-18 02:19N 49°36' W 126°37'2 3.7
2018-Jul-18 01:51N 49°37' W 126°36'  

Dump ship's entire track history